sensor_id;sensor_type;location;lat;lon;timestamp;temperature;humidity
44477;DHT22;30180;44.788;10.366;2023-02-28T00:01:14;16.20;63.50
44477;DHT22;30180;44.788;10.366;2023-02-28T00:03:42;16.20;63.50
44477;DHT22;30180;44.788;10.366;2023-02-28T00:06:10;16.20;63.50
44477;DHT22;30180;44.788;10.366;2023-02-28T00:08:39;16.20;63.50
44477;DHT22;30180;44.788;10.366;2023-02-28T00:11:08;16.20;63.40
44477;DHT22;30180;44.788;10.366;2023-02-28T00:13:39;16.20;63.40
44477;DHT22;30180;44.788;10.366;2023-02-28T00:16:09;16.20;63.40
44477;DHT22;30180;44.788;10.366;2023-02-28T00:18:40;16.20;63.40
44477;DHT22;30180;44.788;10.366;2023-02-28T00:21:09;16.20;63.90
44477;DHT22;30180;44.788;10.366;2023-02-28T00:23:37;16.20;63.40
44477;DHT22;30180;44.788;10.366;2023-02-28T00:26:05;16.10;63.40
44477;DHT22;30180;44.788;10.366;2023-02-28T00:28:34;16.10;63.40
44477;DHT22;30180;44.788;10.366;2023-02-28T00:31:02;16.10;63.40
44477;DHT22;30180;44.788;10.366;2023-02-28T00:33:30;16.10;63.40
44477;DHT22;30180;44.788;10.366;2023-02-28T00:36:05;16.10;63.40
44477;DHT22;30180;44.788;10.366;2023-02-28T00:38:34;16.10;63.40
44477;DHT22;30180;44.788;10.366;2023-02-28T00:41:02;16.10;63.40
44477;DHT22;30180;44.788;10.366;2023-02-28T00:43:32;16.10;63.40
44477;DHT22;30180;44.788;10.366;2023-02-28T00:46:01;16.10;63.40
44477;DHT22;30180;44.788;10.366;2023-02-28T00:48:30;16.10;63.40
44477;DHT22;30180;44.788;10.366;2023-02-28T00:50:58;16.10;63.40
44477;DHT22;30180;44.788;10.366;2023-02-28T00:53:28;16.10;63.40
44477;DHT22;30180;44.788;10.366;2023-02-28T00:55:56;16.10;63.40
44477;DHT22;30180;44.788;10.366;2023-02-28T00:58:25;16.10;63.40
44477;DHT22;30180;44.788;10.366;2023-02-28T01:00:53;16.10;63.40
44477;DHT22;30180;44.788;10.366;2023-02-28T01:03:22;16.10;63.40
44477;DHT22;30180;44.788;10.366;2023-02-28T01:05:51;16.10;63.40
44477;DHT22;30180;44.788;10.366;2023-02-28T01:08:20;16.10;63.40
44477;DHT22;30180;44.788;10.366;2023-02-28T01:10:49;16.10;63.40
44477;DHT22;30180;44.788;10.366;2023-02-28T01:13:18;16.10;63.40
44477;DHT22;30180;44.788;10.366;2023-02-28T01:15:50;16.10;63.40
44477;DHT22;30180;44.788;10.366;2023-02-28T01:18:19;16.10;63.40
44477;DHT22;30180;44.788;10.366;2023-02-28T01:20:47;16.10;63.40
44477;DHT22;30180;44.788;10.366;2023-02-28T01:23:16;16.10;63.40
44477;DHT22;30180;44.788;10.366;2023-02-28T01:25:44;16.10;63.40
44477;DHT22;30180;44.788;10.366;2023-02-28T01:28:13;16.10;63.40
44477;DHT22;30180;44.788;10.366;2023-02-28T01:30:42;16.10;63.40
44477;DHT22;30180;44.788;10.366;2023-02-28T01:33:10;16.10;63.40
44477;DHT22;30180;44.788;10.366;2023-02-28T01:35:38;16.10;63.30
44477;DHT22;30180;44.788;10.366;2023-02-28T01:38:06;16.10;63.30
44477;DHT22;30180;44.788;10.366;2023-02-28T01:40:48;16.00;63.30
44477;DHT22;30180;44.788;10.366;2023-02-28T01:43:21;16.00;63.30
44477;DHT22;30180;44.788;10.366;2023-02-28T01:45:50;16.10;63.30
44477;DHT22;30180;44.788;10.366;2023-02-28T01:48:19;16.00;63.30
44477;DHT22;30180;44.788;10.366;2023-02-28T01:50:48;16.00;63.30
44477;DHT22;30180;44.788;10.366;2023-02-28T01:53:21;16.00;63.30
44477;DHT22;30180;44.788;10.366;2023-02-28T01:55:51;16.00;63.30
44477;DHT22;30180;44.788;10.366;2023-02-28T01:58:22;16.00;63.30
44477;DHT22;30180;44.788;10.366;2023-02-28T02:00:51;16.00;63.30
44477;DHT22;30180;44.788;10.366;2023-02-28T02:03:20;16.00;63.30
44477;DHT22;30180;44.788;10.366;2023-02-28T02:05:48;16.00;63.30
44477;DHT22;30180;44.788;10.366;2023-02-28T02:08:19;16.00;63.20
44477;DHT22;30180;44.788;10.366;2023-02-28T02:10:52;16.00;63.20
44477;DHT22;30180;44.788;10.366;2023-02-28T02:16:28;16.00;63.30
44477;DHT22;30180;44.788;10.366;2023-02-28T02:19:05;16.00;63.20
44477;DHT22;30180;44.788;10.366;2023-02-28T02:22:01;16.00;63.20
44477;DHT22;30180;44.788;10.366;2023-02-28T02:25:19;16.00;63.20
44477;DHT22;30180;44.788;10.366;2023-02-28T02:31:33;16.00;63.20
44477;DHT22;30180;44.788;10.366;2023-02-28T02:34:28;16.00;63.20
44477;DHT22;30180;44.788;10.366;2023-02-28T02:37:08;16.00;63.20
44477;DHT22;30180;44.788;10.366;2023-02-28T02:39:48;16.00;63.20
44477;DHT22;30180;44.788;10.366;2023-02-28T02:42:23;15.90;63.20
44477;DHT22;30180;44.788;10.366;2023-02-28T02:44:58;15.90;63.20
44477;DHT22;30180;44.788;10.366;2023-02-28T02:47:30;16.00;63.20
44477;DHT22;30180;44.788;10.366;2023-02-28T02:50:01;15.90;63.20
44477;DHT22;30180;44.788;10.366;2023-02-28T02:52:33;15.90;63.20
44477;DHT22;30180;44.788;10.366;2023-02-28T02:55:04;15.90;63.20
44477;DHT22;30180;44.788;10.366;2023-02-28T02:57:34;15.90;63.10
44477;DHT22;30180;44.788;10.366;2023-02-28T03:00:05;15.90;63.20
44477;DHT22;30180;44.788;10.366;2023-02-28T03:02:36;15.90;63.20
44477;DHT22;30180;44.788;10.366;2023-02-28T03:05:12;15.90;63.20
44477;DHT22;30180;44.788;10.366;2023-02-28T03:07:42;15.90;63.20
44477;DHT22;30180;44.788;10.366;2023-02-28T03:10:36;15.90;63.20
44477;DHT22;30180;44.788;10.366;2023-02-28T03:16:02;15.90;63.20
44477;DHT22;30180;44.788;10.366;2023-02-28T03:18:43;15.90;63.20
44477;DHT22;30180;44.788;10.366;2023-02-28T03:21:21;15.90;63.20
44477;DHT22;30180;44.788;10.366;2023-02-28T03:23:56;15.90;63.20
44477;DHT22;30180;44.788;10.366;2023-02-28T03:26:27;15.90;63.20
44477;DHT22;30180;44.788;10.366;2023-02-28T03:29:03;15.90;63.20
44477;DHT22;30180;44.788;10.366;2023-02-28T03:31:37;15.90;63.20
44477;DHT22;30180;44.788;10.366;2023-02-28T03:34:11;15.90;63.20
44477;DHT22;30180;44.788;10.366;2023-02-28T03:36:46;15.90;63.20
44477;DHT22;30180;44.788;10.366;2023-02-28T03:39:19;15.90;63.20
44477;DHT22;30180;44.788;10.366;2023-02-28T03:41:53;15.90;63.80
44477;DHT22;30180;44.788;10.366;2023-02-28T03:44:27;15.90;63.20
44477;DHT22;30180;44.788;10.366;2023-02-28T03:46:59;15.90;63.20
44477;DHT22;30180;44.788;10.366;2023-02-28T03:49:31;15.90;63.20
44477;DHT22;30180;44.788;10.366;2023-02-28T03:52:04;15.90;63.20
44477;DHT22;30180;44.788;10.366;2023-02-28T03:54:38;15.90;63.20
44477;DHT22;30180;44.788;10.366;2023-02-28T03:57:13;15.90;63.20
44477;DHT22;30180;44.788;10.366;2023-02-28T03:59:46;15.90;63.20
44477;DHT22;30180;44.788;10.366;2023-02-28T04:02:15;15.90;63.20
44477;DHT22;30180;44.788;10.366;2023-02-28T04:04:45;15.80;63.10
44477;DHT22;30180;44.788;10.366;2023-02-28T04:07:17;15.90;63.20
44477;DHT22;30180;44.788;10.366;2023-02-28T04:09:45;15.80;63.10
44477;DHT22;30180;44.788;10.366;2023-02-28T04:12:14;15.80;63.10
44477;DHT22;30180;44.788;10.366;2023-02-28T04:14:42;15.80;63.20
44477;DHT22;30180;44.788;10.366;2023-02-28T04:17:10;15.80;63.20
44477;DHT22;30180;44.788;10.366;2023-02-28T04:19:38;15.80;63.20
44477;DHT22;30180;44.788;10.366;2023-02-28T04:22:08;15.80;63.20
44477;DHT22;30180;44.788;10.366;2023-02-28T04:24:38;15.80;63.30
44477;DHT22;30180;44.788;10.366;2023-02-28T04:27:08;15.90;63.20
44477;DHT22;30180;44.788;10.366;2023-02-28T04:29:37;15.90;63.20
44477;DHT22;30180;44.788;10.366;2023-02-28T04:32:05;15.90;63.20
44477;DHT22;30180;44.788;10.366;2023-02-28T04:34:34;15.90;63.30
44477;DHT22;30180;44.788;10.366;2023-02-28T04:37:02;15.90;63.30
44477;DHT22;30180;44.788;10.366;2023-02-28T04:39:41;15.90;63.30
44477;DHT22;30180;44.788;10.366;2023-02-28T04:42:10;15.90;63.30
44477;DHT22;30180;44.788;10.366;2023-02-28T04:44:39;15.90;63.30
44477;DHT22;30180;44.788;10.366;2023-02-28T04:47:08;15.90;63.30
44477;DHT22;30180;44.788;10.366;2023-02-28T04:49:36;15.90;63.30
44477;DHT22;30180;44.788;10.366;2023-02-28T04:52:05;16.00;63.40
44477;DHT22;30180;44.788;10.366;2023-02-28T04:54:34;16.00;63.40
44477;DHT22;30180;44.788;10.366;2023-02-28T04:57:04;16.00;63.40
44477;DHT22;30180;44.788;10.366;2023-02-28T04:59:32;16.00;63.40
44477;DHT22;30180;44.788;10.366;2023-02-28T05:02:01;16.00;63.40
44477;DHT22;30180;44.788;10.366;2023-02-28T05:04:34;16.00;63.40
44477;DHT22;30180;44.788;10.366;2023-02-28T05:07:02;16.10;63.50
44477;DHT22;30180;44.788;10.366;2023-02-28T05:09:30;16.10;63.50
44477;DHT22;30180;44.788;10.366;2023-02-28T05:11:59;16.10;63.50
44477;DHT22;30180;44.788;10.366;2023-02-28T05:14:29;16.10;63.50
44477;DHT22;30180;44.788;10.366;2023-02-28T05:16:57;16.10;63.50
44477;DHT22;30180;44.788;10.366;2023-02-28T05:19:25;16.10;63.50
44477;DHT22;30180;44.788;10.366;2023-02-28T05:21:54;16.20;63.50
44477;DHT22;30180;44.788;10.366;2023-02-28T05:24:23;16.20;63.50
44477;DHT22;30180;44.788;10.366;2023-02-28T05:26:53;16.20;63.60
44477;DHT22;30180;44.788;10.366;2023-02-28T05:29:22;16.20;63.60
44477;DHT22;30180;44.788;10.366;2023-02-28T05:31:51;16.20;63.60
44477;DHT22;30180;44.788;10.366;2023-02-28T05:34:20;16.30;63.60
44477;DHT22;30180;44.788;10.366;2023-02-28T05:36:48;16.30;63.60
44477;DHT22;30180;44.788;10.366;2023-02-28T05:39:16;16.30;63.60
44477;DHT22;30180;44.788;10.366;2023-02-28T05:41:44;16.30;63.60
44477;DHT22;30180;44.788;10.366;2023-02-28T05:44:13;16.40;63.60
44477;DHT22;30180;44.788;10.366;2023-02-28T05:46:41;16.30;63.50
44477;DHT22;30180;44.788;10.366;2023-02-28T05:49:11;16.40;63.60
44477;DHT22;30180;44.788;10.366;2023-02-28T05:51:39;16.40;64.20
44477;DHT22;30180;44.788;10.366;2023-02-28T05:54:07;16.40;63.60
44477;DHT22;30180;44.788;10.366;2023-02-28T05:56:39;16.40;63.50
44477;DHT22;30180;44.788;10.366;2023-02-28T05:59:10;16.40;63.50
44477;DHT22;30180;44.788;10.366;2023-02-28T06:01:40;16.40;63.50
44477;DHT22;30180;44.788;10.366;2023-02-28T06:04:11;16.40;63.50
44477;DHT22;30180;44.788;10.366;2023-02-28T06:06:57;16.40;64.10
44477;DHT22;30180;44.788;10.366;2023-02-28T06:09:25;16.40;63.50
44477;DHT22;30180;44.788;10.366;2023-02-28T06:11:53;16.40;63.50
44477;DHT22;30180;44.788;10.366;2023-02-28T06:14:22;16.40;63.50
44477;DHT22;30180;44.788;10.366;2023-02-28T06:16:50;16.40;63.40
44477;DHT22;30180;44.788;10.366;2023-02-28T06:19:19;16.40;63.40
44477;DHT22;30180;44.788;10.366;2023-02-28T06:21:50;16.50;63.50
44477;DHT22;30180;44.788;10.366;2023-02-28T06:24:19;16.40;63.50
44477;DHT22;30180;44.788;10.366;2023-02-28T06:26:48;16.40;63.40
44477;DHT22;30180;44.788;10.366;2023-02-28T06:29:16;16.40;63.40
44477;DHT22;30180;44.788;10.366;2023-02-28T06:31:45;16.40;63.40
44477;DHT22;30180;44.788;10.366;2023-02-28T06:34:14;16.40;63.40
44477;DHT22;30180;44.788;10.366;2023-02-28T06:36:43;16.40;63.30
44477;DHT22;30180;44.788;10.366;2023-02-28T06:39:12;16.40;63.30
44477;DHT22;30180;44.788;10.366;2023-02-28T06:41:40;16.40;63.30
44477;DHT22;30180;44.788;10.366;2023-02-28T06:44:22;16.40;63.40
44477;DHT22;30180;44.788;10.366;2023-02-28T06:46:51;16.40;63.40
44477;DHT22;30180;44.788;10.366;2023-02-28T06:49:19;16.40;63.50
44477;DHT22;30180;44.788;10.366;2023-02-28T06:51:49;16.40;63.50
44477;DHT22;30180;44.788;10.366;2023-02-28T06:54:17;16.50;63.50
44477;DHT22;30180;44.788;10.366;2023-02-28T06:56:46;16.50;63.40
44477;DHT22;30180;44.788;10.366;2023-02-28T06:59:15;16.50;63.50
44477;DHT22;30180;44.788;10.366;2023-02-28T07:01:43;16.60;63.50
44477;DHT22;30180;44.788;10.366;2023-02-28T07:04:12;16.50;63.40
44477;DHT22;30180;44.788;10.366;2023-02-28T07:06:40;16.60;63.50
44477;DHT22;30180;44.788;10.366;2023-02-28T07:09:10;16.60;63.50
44477;DHT22;30180;44.788;10.366;2023-02-28T07:11:40;16.60;63.50
44477;DHT22;30180;44.788;10.366;2023-02-28T07:14:09;16.60;63.50
44477;DHT22;30180;44.788;10.366;2023-02-28T07:16:38;16.70;63.50
44477;DHT22;30180;44.788;10.366;2023-02-28T07:19:06;16.60;63.40
44477;DHT22;30180;44.788;10.366;2023-02-28T07:21:35;16.70;63.50
44477;DHT22;30180;44.788;10.366;2023-02-28T07:24:03;16.70;63.50
44477;DHT22;30180;44.788;10.366;2023-02-28T07:26:33;16.70;63.40
44477;DHT22;30180;44.788;10.366;2023-02-28T07:29:01;16.70;63.40
44477;DHT22;30180;44.788;10.366;2023-02-28T07:31:30;16.70;63.40
44477;DHT22;30180;44.788;10.366;2023-02-28T07:33:58;16.70;63.40
44477;DHT22;30180;44.788;10.366;2023-02-28T07:36:27;16.70;63.40
44477;DHT22;30180;44.788;10.366;2023-02-28T07:38:55;16.70;63.40
44477;DHT22;30180;44.788;10.366;2023-02-28T07:41:23;16.80;63.40
44477;DHT22;30180;44.788;10.366;2023-02-28T07:43:56;16.70;63.30
44477;DHT22;30180;44.788;10.366;2023-02-28T07:46:26;16.80;63.40
44477;DHT22;30180;44.788;10.366;2023-02-28T07:48:56;16.70;63.30
44477;DHT22;30180;44.788;10.366;2023-02-28T07:51:26;16.70;63.30
44477;DHT22;30180;44.788;10.366;2023-02-28T07:53:55;16.70;63.30
44477;DHT22;30180;44.788;10.366;2023-02-28T07:56:23;16.70;63.50
44477;DHT22;30180;44.788;10.366;2023-02-28T07:58:51;16.80;63.60
44477;DHT22;30180;44.788;10.366;2023-02-28T08:01:21;16.80;63.70
44477;DHT22;30180;44.788;10.366;2023-02-28T08:03:49;16.90;63.80
44477;DHT22;30180;44.788;10.366;2023-02-28T08:06:21;16.90;63.90
44477;DHT22;30180;44.788;10.366;2023-02-28T08:08:49;17.00;63.90
44477;DHT22;30180;44.788;10.366;2023-02-28T08:11:18;17.00;64.50
44477;DHT22;30180;44.788;10.366;2023-02-28T08:13:47;17.10;64.00
44477;DHT22;30180;44.788;10.366;2023-02-28T08:16:15;17.10;64.00
44477;DHT22;30180;44.788;10.366;2023-02-28T08:18:51;17.20;64.00
44477;DHT22;30180;44.788;10.366;2023-02-28T08:21:20;17.20;64.00
44477;DHT22;30180;44.788;10.366;2023-02-28T08:23:49;17.20;64.00
44477;DHT22;30180;44.788;10.366;2023-02-28T08:26:18;17.30;64.00
44477;DHT22;30180;44.788;10.366;2023-02-28T08:28:46;17.30;64.00
44477;DHT22;30180;44.788;10.366;2023-02-28T08:31:16;17.30;64.00
44477;DHT22;30180;44.788;10.366;2023-02-28T08:33:45;17.40;64.00
44477;DHT22;30180;44.788;10.366;2023-02-28T08:36:17;17.40;64.00
44477;DHT22;30180;44.788;10.366;2023-02-28T08:38:45;17.40;64.00
44477;DHT22;30180;44.788;10.366;2023-02-28T08:41:13;17.50;64.10
44477;DHT22;30180;44.788;10.366;2023-02-28T08:43:42;17.50;64.10
44477;DHT22;30180;44.788;10.366;2023-02-28T08:46:12;17.50;64.10
44477;DHT22;30180;44.788;10.366;2023-02-28T08:48:41;17.60;64.20
44477;DHT22;30180;44.788;10.366;2023-02-28T08:51:11;17.60;64.10
44477;DHT22;30180;44.788;10.366;2023-02-28T08:53:41;17.60;64.10
44477;DHT22;30180;44.788;10.366;2023-02-28T08:56:11;17.60;64.00
44477;DHT22;30180;44.788;10.366;2023-02-28T08:58:40;17.60;64.00
44477;DHT22;30180;44.788;10.366;2023-02-28T09:01:09;17.70;64.00
44477;DHT22;30180;44.788;10.366;2023-02-28T09:03:39;17.70;63.90
44477;DHT22;30180;44.788;10.366;2023-02-28T09:06:09;17.70;63.90
44477;DHT22;30180;44.788;10.366;2023-02-28T09:08:40;17.70;63.90
44477;DHT22;30180;44.788;10.366;2023-02-28T09:11:09;17.70;63.90
44477;DHT22;30180;44.788;10.366;2023-02-28T09:13:38;17.70;63.90
44477;DHT22;30180;44.788;10.366;2023-02-28T09:16:10;17.80;63.90
44477;DHT22;30180;44.788;10.366;2023-02-28T09:18:39;17.80;63.90
44477;DHT22;30180;44.788;10.366;2023-02-28T09:21:09;17.80;63.80
44477;DHT22;30180;44.788;10.366;2023-02-28T09:23:42;17.80;63.80
44477;DHT22;30180;44.788;10.366;2023-02-28T09:26:13;17.80;63.80
44477;DHT22;30180;44.788;10.366;2023-02-28T09:28:42;17.80;63.80
44477;DHT22;30180;44.788;10.366;2023-02-28T09:31:13;17.90;63.80
44477;DHT22;30180;44.788;10.366;2023-02-28T09:33:41;17.90;63.70
44477;DHT22;30180;44.788;10.366;2023-02-28T09:36:09;17.90;63.60
44477;DHT22;30180;44.788;10.366;2023-02-28T09:38:38;17.90;63.60
44477;DHT22;30180;44.788;10.366;2023-02-28T09:41:13;17.90;63.50
44477;DHT22;30180;44.788;10.366;2023-02-28T09:43:45;17.90;63.50
44477;DHT22;30180;44.788;10.366;2023-02-28T09:46:26;17.90;63.50
44477;DHT22;30180;44.788;10.366;2023-02-28T09:48:56;17.90;63.40
44477;DHT22;30180;44.788;10.366;2023-02-28T09:51:33;17.90;63.40
44477;DHT22;30180;44.788;10.366;2023-02-28T09:54:03;17.90;63.40
44477;DHT22;30180;44.788;10.366;2023-02-28T09:56:36;18.00;63.40
44477;DHT22;30180;44.788;10.366;2023-02-28T09:59:13;18.00;63.30
44477;DHT22;30180;44.788;10.366;2023-02-28T10:01:53;18.00;63.30
44477;DHT22;30180;44.788;10.366;2023-02-28T10:04:42;18.00;63.30
44477;DHT22;30180;44.788;10.366;2023-02-28T10:07:24;18.00;63.20
44477;DHT22;30180;44.788;10.366;2023-02-28T10:09:59;18.00;63.20
44477;DHT22;30180;44.788;10.366;2023-02-28T10:12:32;18.00;63.10
44477;DHT22;30180;44.788;10.366;2023-02-28T10:15:01;18.00;63.10
44477;DHT22;30180;44.788;10.366;2023-02-28T10:17:37;18.00;63.10
44477;DHT22;30180;44.788;10.366;2023-02-28T10:20:23;18.00;63.00
44477;DHT22;30180;44.788;10.366;2023-02-28T10:23:00;18.00;63.00
44477;DHT22;30180;44.788;10.366;2023-02-28T10:25:36;18.00;62.90
44477;DHT22;30180;44.788;10.366;2023-02-28T10:28:14;18.00;63.10
44477;DHT22;30180;44.788;10.366;2023-02-28T10:30:45;18.10;63.50
44477;DHT22;30180;44.788;10.366;2023-02-28T10:33:21;18.20;63.90
44477;DHT22;30180;44.788;10.366;2023-02-28T10:35:50;18.30;63.90
44477;DHT22;30180;44.788;10.366;2023-02-28T10:38:21;18.40;64.00
44477;DHT22;30180;44.788;10.366;2023-02-28T10:40:51;18.50;64.00
44477;DHT22;30180;44.788;10.366;2023-02-28T10:43:23;18.60;64.00
44477;DHT22;30180;44.788;10.366;2023-02-28T10:45:55;18.70;63.90
44477;DHT22;30180;44.788;10.366;2023-02-28T10:48:32;18.80;63.80
44477;DHT22;30180;44.788;10.366;2023-02-28T10:51:02;18.90;63.70
44477;DHT22;30180;44.788;10.366;2023-02-28T10:53:37;18.90;63.30
44477;DHT22;30180;44.788;10.366;2023-02-28T10:56:25;18.90;62.90
44477;DHT22;30180;44.788;10.366;2023-02-28T10:58:57;18.90;62.70
44477;DHT22;30180;44.788;10.366;2023-02-28T11:01:36;18.80;62.60
44477;DHT22;30180;44.788;10.366;2023-02-28T11:04:17;18.80;62.50
44477;DHT22;30180;44.788;10.366;2023-02-28T11:06:47;18.80;62.30
44477;DHT22;30180;44.788;10.366;2023-02-28T11:09:22;18.80;62.20
44477;DHT22;30180;44.788;10.366;2023-02-28T11:11:51;18.70;62.20
44477;DHT22;30180;44.788;10.366;2023-02-28T11:14:23;18.70;62.20
44477;DHT22;30180;44.788;10.366;2023-02-28T11:16:53;18.70;62.20
44477;DHT22;30180;44.788;10.366;2023-02-28T11:19:25;18.70;62.20
44477;DHT22;30180;44.788;10.366;2023-02-28T11:21:57;18.70;62.10
44477;DHT22;30180;44.788;10.366;2023-02-28T11:24:26;18.70;62.10
44477;DHT22;30180;44.788;10.366;2023-02-28T11:26:55;18.70;62.00
44477;DHT22;30180;44.788;10.366;2023-02-28T11:29:27;18.70;62.10
44477;DHT22;30180;44.788;10.366;2023-02-28T11:32:05;18.70;62.00
44477;DHT22;30180;44.788;10.366;2023-02-28T11:34:36;18.70;62.10
44477;DHT22;30180;44.788;10.366;2023-02-28T11:37:11;18.70;62.10
44477;DHT22;30180;44.788;10.366;2023-02-28T11:39:40;18.70;62.00
44477;DHT22;30180;44.788;10.366;2023-02-28T11:42:29;18.70;61.80
44477;DHT22;30180;44.788;10.366;2023-02-28T11:45:14;18.70;61.70
44477;DHT22;30180;44.788;10.366;2023-02-28T11:47:50;18.70;62.00
44477;DHT22;30180;44.788;10.366;2023-02-28T11:50:42;18.80;62.40
44477;DHT22;30180;44.788;10.366;2023-02-28T11:53:19;18.80;62.50
44477;DHT22;30180;44.788;10.366;2023-02-28T11:55:53;19.00;62.50
44477;DHT22;30180;44.788;10.366;2023-02-28T11:58:29;19.00;62.20
44477;DHT22;30180;44.788;10.366;2023-02-28T12:01:24;19.10;62.00
44477;DHT22;30180;44.788;10.366;2023-02-28T12:04:07;19.10;61.70
44477;DHT22;30180;44.788;10.366;2023-02-28T12:06:43;19.10;61.60
44477;DHT22;30180;44.788;10.366;2023-02-28T12:09:27;19.10;61.50
44477;DHT22;30180;44.788;10.366;2023-02-28T12:12:03;19.10;61.40
44477;DHT22;30180;44.788;10.366;2023-02-28T12:17:50;19.10;61.10
44477;DHT22;30180;44.788;10.366;2023-02-28T12:20:27;19.10;61.70
44477;DHT22;30180;44.788;10.366;2023-02-28T12:26:06;19.10;60.80
44477;DHT22;30180;44.788;10.366;2023-02-28T12:28:41;19.10;60.80
44477;DHT22;30180;44.788;10.366;2023-02-28T12:31:16;19.00;60.70
44477;DHT22;30180;44.788;10.366;2023-02-28T12:33:50;19.00;60.70
44477;DHT22;30180;44.788;10.366;2023-02-28T12:36:20;19.00;61.20
44477;DHT22;30180;44.788;10.366;2023-02-28T12:38:51;19.00;60.60
44477;DHT22;30180;44.788;10.366;2023-02-28T12:41:27;19.00;60.40
44477;DHT22;30180;44.788;10.366;2023-02-28T12:44:01;19.00;60.40
44477;DHT22;30180;44.788;10.366;2023-02-28T12:46:33;18.90;60.40
44477;DHT22;30180;44.788;10.366;2023-02-28T12:49:09;18.90;60.30
44477;DHT22;30180;44.788;10.366;2023-02-28T12:51:39;18.90;60.30
44477;DHT22;30180;44.788;10.366;2023-02-28T12:54:18;18.90;60.30
44477;DHT22;30180;44.788;10.366;2023-02-28T12:56:52;18.90;60.30
44477;DHT22;30180;44.788;10.366;2023-02-28T12:59:26;18.80;60.20
44477;DHT22;30180;44.788;10.366;2023-02-28T13:02:22;18.80;60.20
44477;DHT22;30180;44.788;10.366;2023-02-28T13:05:14;18.80;60.20
44477;DHT22;30180;44.788;10.366;2023-02-28T13:08:12;18.80;60.20
44477;DHT22;30180;44.788;10.366;2023-02-28T13:10:48;18.80;60.20
44477;DHT22;30180;44.788;10.366;2023-02-28T13:13:23;18.70;60.10
44477;DHT22;30180;44.788;10.366;2023-02-28T13:16:01;18.70;60.10
44477;DHT22;30180;44.788;10.366;2023-02-28T13:18:32;18.70;60.10
44477;DHT22;30180;44.788;10.366;2023-02-28T13:21:06;18.70;60.10
44477;DHT22;30180;44.788;10.366;2023-02-28T13:29:39;18.60;60.00
44477;DHT22;30180;44.788;10.366;2023-02-28T13:32:42;18.60;60.00
44477;DHT22;30180;44.788;10.366;2023-02-28T13:35:36;18.50;59.90
44477;DHT22;30180;44.788;10.366;2023-02-28T13:38:34;18.50;59.90
44477;DHT22;30180;44.788;10.366;2023-02-28T13:44:23;18.50;59.90
44477;DHT22;30180;44.788;10.366;2023-02-28T13:47:21;18.50;59.90
44477;DHT22;30180;44.788;10.366;2023-02-28T13:49:52;18.40;59.70
44477;DHT22;30180;44.788;10.366;2023-02-28T13:52:22;18.40;59.70
44477;DHT22;30180;44.788;10.366;2023-02-28T13:55:18;18.40;59.80
44477;DHT22;30180;44.788;10.366;2023-02-28T13:58:09;18.40;59.90
44477;DHT22;30180;44.788;10.366;2023-02-28T14:01:07;18.30;60.00
44477;DHT22;30180;44.788;10.366;2023-02-28T14:04:03;18.30;60.00
44477;DHT22;30180;44.788;10.366;2023-02-28T14:06:38;18.40;60.10
44477;DHT22;30180;44.788;10.366;2023-02-28T14:09:19;18.40;60.10
44477;DHT22;30180;44.788;10.366;2023-02-28T14:11:52;18.40;60.20
44477;DHT22;30180;44.788;10.366;2023-02-28T14:14:54;18.40;60.20
44477;DHT22;30180;44.788;10.366;2023-02-28T14:17:25;18.40;60.20
44477;DHT22;30180;44.788;10.366;2023-02-28T14:19:54;18.40;60.30
44477;DHT22;30180;44.788;10.366;2023-02-28T14:22:45;18.40;60.30
44477;DHT22;30180;44.788;10.366;2023-02-28T14:25:22;18.40;60.30
44477;DHT22;30180;44.788;10.366;2023-02-28T14:28:01;18.50;60.40
44477;DHT22;30180;44.788;10.366;2023-02-28T14:31:04;18.50;60.40
44477;DHT22;30180;44.788;10.366;2023-02-28T14:33:48;18.50;60.40
44477;DHT22;30180;44.788;10.366;2023-02-28T14:36:30;18.50;60.40
44477;DHT22;30180;44.788;10.366;2023-02-28T14:39:04;18.60;60.40
44477;DHT22;30180;44.788;10.366;2023-02-28T14:41:35;18.50;60.40
44477;DHT22;30180;44.788;10.366;2023-02-28T14:44:17;18.60;60.40
44477;DHT22;30180;44.788;10.366;2023-02-28T14:46:48;18.60;60.40
44477;DHT22;30180;44.788;10.366;2023-02-28T14:49:19;18.60;60.50
44477;DHT22;30180;44.788;10.366;2023-02-28T14:52:00;18.60;60.40
44477;DHT22;30180;44.788;10.366;2023-02-28T14:54:30;18.60;60.30
44477;DHT22;30180;44.788;10.366;2023-02-28T14:56:58;18.60;60.30
44477;DHT22;30180;44.788;10.366;2023-02-28T14:59:30;18.70;60.40
44477;DHT22;30180;44.788;10.366;2023-02-28T15:02:15;18.60;60.40
44477;DHT22;30180;44.788;10.366;2023-02-28T15:04:52;18.60;60.40
44477;DHT22;30180;44.788;10.366;2023-02-28T15:07:21;18.70;60.40
44477;DHT22;30180;44.788;10.366;2023-02-28T15:10:13;18.70;60.40
44477;DHT22;30180;44.788;10.366;2023-02-28T15:12:49;18.70;60.40
44477;DHT22;30180;44.788;10.366;2023-02-28T15:15:21;18.70;60.40
44477;DHT22;30180;44.788;10.366;2023-02-28T15:18:07;18.70;60.20
44477;DHT22;30180;44.788;10.366;2023-02-28T15:20:39;18.70;60.20
44477;DHT22;30180;44.788;10.366;2023-02-28T15:23:09;18.70;60.10
44477;DHT22;30180;44.788;10.366;2023-02-28T15:25:40;18.70;60.20
44477;DHT22;30180;44.788;10.366;2023-02-28T15:28:15;18.70;60.20
44477;DHT22;30180;44.788;10.366;2023-02-28T15:30:54;18.70;60.20
44477;DHT22;30180;44.788;10.366;2023-02-28T15:33:24;18.70;60.20
44477;DHT22;30180;44.788;10.366;2023-02-28T15:36:10;18.70;60.20
44477;DHT22;30180;44.788;10.366;2023-02-28T15:38:39;18.70;60.30
44477;DHT22;30180;44.788;10.366;2023-02-28T15:41:22;18.70;60.30
44477;DHT22;30180;44.788;10.366;2023-02-28T15:44:16;18.70;60.30
44477;DHT22;30180;44.788;10.366;2023-02-28T15:46:55;18.70;60.20
44477;DHT22;30180;44.788;10.366;2023-02-28T15:49:25;18.80;60.20
44477;DHT22;30180;44.788;10.366;2023-02-28T15:51:56;18.80;60.30
44477;DHT22;30180;44.788;10.366;2023-02-28T15:54:28;18.80;60.40
44477;DHT22;30180;44.788;10.366;2023-02-28T15:57:00;18.80;60.30
44477;DHT22;30180;44.788;10.366;2023-02-28T15:59:30;18.80;60.40
44477;DHT22;30180;44.788;10.366;2023-02-28T16:02:13;18.80;60.30
44477;DHT22;30180;44.788;10.366;2023-02-28T16:05:01;18.80;60.30
44477;DHT22;30180;44.788;10.366;2023-02-28T16:07:30;18.90;60.40
44477;DHT22;30180;44.788;10.366;2023-02-28T16:09:58;18.90;60.40
44477;DHT22;30180;44.788;10.366;2023-02-28T16:12:31;18.90;60.40
44477;DHT22;30180;44.788;10.366;2023-02-28T16:15:02;18.90;60.20
44477;DHT22;30180;44.788;10.366;2023-02-28T16:17:34;18.90;60.20